sensor_id;sensor_type;location;lat;lon;timestamp;temperature;humidity
71175;DHT22;58876;51.994;4.472;2023-02-01T00:02:01;7.93;70.27
71175;DHT22;58876;51.994;4.472;2023-02-01T00:04:26;8.01;70.11
71175;DHT22;58876;51.994;4.472;2023-02-01T00:06:52;7.97;70.15
71175;DHT22;58876;51.994;4.472;2023-02-01T00:09:18;7.94;69.95
71175;DHT22;58876;51.994;4.472;2023-02-01T00:11:44;7.93;70.00
71175;DHT22;58876;51.994;4.472;2023-02-01T00:14:09;7.97;69.86
71175;DHT22;58876;51.994;4.472;2023-02-01T00:16:35;7.97;70.05
71175;DHT22;58876;51.994;4.472;2023-02-01T00:19:04;7.86;69.94
71175;DHT22;58876;51.994;4.472;2023-02-01T00:21:31;7.94;69.60
71175;DHT22;58876;51.994;4.472;2023-02-01T00:23:57;7.94;69.29
71175;DHT22;58876;51.994;4.472;2023-02-01T00:26:42;7.90;69.30
71175;DHT22;58876;51.994;4.472;2023-02-01T00:29:18;7.97;69.07
71175;DHT22;58876;51.994;4.472;2023-02-01T00:31:44;7.89;69.54
71175;DHT22;58876;51.994;4.472;2023-02-01T00:34:14;7.89;69.18
71175;DHT22;58876;51.994;4.472;2023-02-01T00:36:41;7.98;68.60
71175;DHT22;58876;51.994;4.472;2023-02-01T00:39:07;7.96;68.71
71175;DHT22;58876;51.994;4.472;2023-02-01T00:41:32;7.94;68.57
71175;DHT22;58876;51.994;4.472;2023-02-01T00:43:58;7.94;68.62
71175;DHT22;58876;51.994;4.472;2023-02-01T00:46:23;8.00;68.68
71175;DHT22;58876;51.994;4.472;2023-02-01T00:48:49;7.98;68.76
71175;DHT22;58876;51.994;4.472;2023-02-01T00:51:18;8.04;68.63
71175;DHT22;58876;51.994;4.472;2023-02-01T00:53:45;7.93;68.98
71175;DHT22;58876;51.994;4.472;2023-02-01T00:56:11;7.91;69.41
71175;DHT22;58876;51.994;4.472;2023-02-01T00:58:37;7.94;69.65
71175;DHT22;58876;51.994;4.472;2023-02-01T01:01:15;7.86;70.08
71175;DHT22;58876;51.994;4.472;2023-02-01T01:03:44;7.86;70.57
71175;DHT22;58876;51.994;4.472;2023-02-01T01:06:16;7.94;70.48
71175;DHT22;58876;51.994;4.472;2023-02-01T01:08:42;7.90;70.66
71175;DHT22;58876;51.994;4.472;2023-02-01T01:11:11;7.87;70.81
71175;DHT22;58876;51.994;4.472;2023-02-01T01:13:37;7.90;70.95
71175;DHT22;58876;51.994;4.472;2023-02-01T01:16:05;7.98;70.73
71175;DHT22;58876;51.994;4.472;2023-02-01T01:18:32;8.00;70.80
71175;DHT22;58876;51.994;4.472;2023-02-01T01:20:59;8.00;71.17
71175;DHT22;58876;51.994;4.472;2023-02-01T01:23:26;7.94;71.56
71175;DHT22;58876;51.994;4.472;2023-02-01T01:25:52;8.01;71.45
71175;DHT22;58876;51.994;4.472;2023-02-01T01:28:17;8.00;71.67
71175;DHT22;58876;51.994;4.472;2023-02-01T01:30:43;8.08;71.58
71175;DHT22;58876;51.994;4.472;2023-02-01T01:33:09;8.05;71.52
71175;DHT22;58876;51.994;4.472;2023-02-01T01:35:35;8.03;71.35
71175;DHT22;58876;51.994;4.472;2023-02-01T01:38:01;8.08;71.37
71175;DHT22;58876;51.994;4.472;2023-02-01T01:40:28;8.17;71.05
71175;DHT22;58876;51.994;4.472;2023-02-01T01:42:54;8.01;71.61
71175;DHT22;58876;51.994;4.472;2023-02-01T01:48:13;7.94;72.03
71175;DHT22;58876;51.994;4.472;2023-02-01T01:50:55;7.87;72.29
71175;DHT22;58876;51.994;4.472;2023-02-01T01:53:27;7.91;72.59
71175;DHT22;58876;51.994;4.472;2023-02-01T01:55:56;7.89;72.54
71175;DHT22;58876;51.994;4.472;2023-02-01T01:58:26;7.93;73.01
71175;DHT22;58876;51.994;4.472;2023-02-01T02:00:53;7.87;73.16
71175;DHT22;58876;51.994;4.472;2023-02-01T02:03:23;7.96;72.98
71175;DHT22;58876;51.994;4.472;2023-02-01T02:05:53;7.93;73.13
71175;DHT22;58876;51.994;4.472;2023-02-01T02:08:20;7.89;73.37
71175;DHT22;58876;51.994;4.472;2023-02-01T02:10:50;7.98;72.85
71175;DHT22;58876;51.994;4.472;2023-02-01T02:13:38;7.98;73.01
71175;DHT22;58876;51.994;4.472;2023-02-01T02:16:26;8.04;72.68
71175;DHT22;58876;51.994;4.472;2023-02-01T02:30:22;8.01;72.33
71175;DHT22;58876;51.994;4.472;2023-02-01T02:38:34;8.07;72.25
71175;DHT22;58876;51.994;4.472;2023-02-01T02:45:04;8.01;72.79
71175;DHT22;58876;51.994;4.472;2023-02-01T02:47:27;8.10;72.92
71175;DHT22;58876;51.994;4.472;2023-02-01T02:50:06;8.07;72.86
71175;DHT22;58876;51.994;4.472;2023-02-01T02:53:01;8.23;72.33
71175;DHT22;58876;51.994;4.472;2023-02-01T02:55:49;8.13;72.33
71175;DHT22;58876;51.994;4.472;2023-02-01T02:58:16;8.17;71.83
71175;DHT22;58876;51.994;4.472;2023-02-01T03:01:03;8.07;72.21
71175;DHT22;58876;51.994;4.472;2023-02-01T03:03:48;8.10;72.30
71175;DHT22;58876;51.994;4.472;2023-02-01T03:06:34;8.03;72.59
71175;DHT22;58876;51.994;4.472;2023-02-01T03:09:12;7.86;73.11
71175;DHT22;58876;51.994;4.472;2023-02-01T03:11:39;7.90;73.01
71175;DHT22;58876;51.994;4.472;2023-02-01T03:14:28;7.83;73.55
71175;DHT22;58876;51.994;4.472;2023-02-01T03:17:05;7.72;74.32
71175;DHT22;58876;51.994;4.472;2023-02-01T03:19:40;7.84;73.98
71175;DHT22;58876;51.994;4.472;2023-02-01T03:22:21;7.84;73.73
71175;DHT22;58876;51.994;4.472;2023-02-01T03:25:30;7.74;73.90
71175;DHT22;58876;51.994;4.472;2023-02-01T03:27:58;7.74;73.80
71175;DHT22;58876;51.994;4.472;2023-02-01T03:30:40;7.79;73.76
71175;DHT22;58876;51.994;4.472;2023-02-01T03:33:15;7.67;73.57
71175;DHT22;58876;51.994;4.472;2023-02-01T03:38:40;7.72;73.39
71175;DHT22;58876;51.994;4.472;2023-02-01T03:46:59;7.73;73.47
71175;DHT22;58876;51.994;4.472;2023-02-01T03:49:31;7.72;73.48
71175;DHT22;58876;51.994;4.472;2023-02-01T03:51:59;7.73;73.62
71175;DHT22;58876;51.994;4.472;2023-02-01T03:54:28;7.69;73.41
71175;DHT22;58876;51.994;4.472;2023-02-01T03:56:57;7.66;73.19
71175;DHT22;58876;51.994;4.472;2023-02-01T03:59:24;7.74;72.88
71175;DHT22;58876;51.994;4.472;2023-02-01T04:01:49;7.73;73.12
71175;DHT22;58876;51.994;4.472;2023-02-01T04:04:15;7.66;73.20
71175;DHT22;58876;51.994;4.472;2023-02-01T04:06:46;7.76;73.12
71175;DHT22;58876;51.994;4.472;2023-02-01T04:09:12;7.76;72.87
71175;DHT22;58876;51.994;4.472;2023-02-01T04:11:37;7.61;73.06
71175;DHT22;58876;51.994;4.472;2023-02-01T04:14:02;7.73;73.17
71175;DHT22;58876;51.994;4.472;2023-02-01T04:16:30;7.83;72.94
71175;DHT22;58876;51.994;4.472;2023-02-01T04:18:57;7.82;73.11
71175;DHT22;58876;51.994;4.472;2023-02-01T04:21:27;7.80;73.08
71175;DHT22;58876;51.994;4.472;2023-02-01T04:23:53;7.87;72.73
71175;DHT22;58876;51.994;4.472;2023-02-01T04:26:19;7.82;72.56
71175;DHT22;58876;51.994;4.472;2023-02-01T04:28:46;7.90;72.57
71175;DHT22;58876;51.994;4.472;2023-02-01T04:31:16;7.89;72.74
71175;DHT22;58876;51.994;4.472;2023-02-01T04:33:42;7.91;72.63
71175;DHT22;58876;51.994;4.472;2023-02-01T04:36:08;7.93;72.69
71175;DHT22;58876;51.994;4.472;2023-02-01T04:38:33;7.90;72.65
71175;DHT22;58876;51.994;4.472;2023-02-01T04:40:59;7.74;73.15
71175;DHT22;58876;51.994;4.472;2023-02-01T04:43:26;7.83;73.14
71175;DHT22;58876;51.994;4.472;2023-02-01T04:45:51;7.74;72.76
71175;DHT22;58876;51.994;4.472;2023-02-01T04:48:19;7.70;72.81
71175;DHT22;58876;51.994;4.472;2023-02-01T04:50:45;7.73;72.88
71175;DHT22;58876;51.994;4.472;2023-02-01T04:53:15;7.73;72.70
71175;DHT22;58876;51.994;4.472;2023-02-01T04:55:42;7.70;72.72
71175;DHT22;58876;51.994;4.472;2023-02-01T04:58:08;7.69;72.85
71175;DHT22;58876;51.994;4.472;2023-02-01T05:00:33;7.76;73.02
71175;DHT22;58876;51.994;4.472;2023-02-01T05:02:59;7.66;73.01
71175;DHT22;58876;51.994;4.472;2023-02-01T05:05:25;7.69;73.14
71175;DHT22;58876;51.994;4.472;2023-02-01T05:07:50;7.63;73.53
71175;DHT22;58876;51.994;4.472;2023-02-01T05:10:16;7.63;73.44
71175;DHT22;58876;51.994;4.472;2023-02-01T05:12:43;7.63;73.00
71175;DHT22;58876;51.994;4.472;2023-02-01T05:15:27;7.51;73.83
71175;DHT22;58876;51.994;4.472;2023-02-01T05:17:52;7.59;73.46
71175;DHT22;58876;51.994;4.472;2023-02-01T05:20:18;7.58;73.93
71175;DHT22;58876;51.994;4.472;2023-02-01T05:22:43;7.63;73.39
71175;DHT22;58876;51.994;4.472;2023-02-01T05:25:09;7.53;73.95
71175;DHT22;58876;51.994;4.472;2023-02-01T05:27:35;7.59;74.04
71175;DHT22;58876;51.994;4.472;2023-02-01T05:30:01;7.59;74.16
71175;DHT22;58876;51.994;4.472;2023-02-01T05:32:26;7.53;74.48
71175;DHT22;58876;51.994;4.472;2023-02-01T05:34:52;7.49;74.55
71175;DHT22;58876;51.994;4.472;2023-02-01T05:37:17;7.46;74.96
71175;DHT22;58876;51.994;4.472;2023-02-01T05:39:42;7.44;74.95
71175;DHT22;58876;51.994;4.472;2023-02-01T05:42:08;7.52;74.82
71175;DHT22;58876;51.994;4.472;2023-02-01T05:44:33;7.59;74.74
71175;DHT22;58876;51.994;4.472;2023-02-01T05:46:59;7.53;74.82
71175;DHT22;58876;51.994;4.472;2023-02-01T05:49:24;7.69;74.25
71175;DHT22;58876;51.994;4.472;2023-02-01T05:51:50;7.73;74.13
71175;DHT22;58876;51.994;4.472;2023-02-01T05:54:15;7.65;74.16
71175;DHT22;58876;51.994;4.472;2023-02-01T05:56:40;7.63;74.42
71175;DHT22;58876;51.994;4.472;2023-02-01T05:59:06;7.67;74.31
71175;DHT22;58876;51.994;4.472;2023-02-01T06:01:31;7.62;74.30
71175;DHT22;58876;51.994;4.472;2023-02-01T06:03:57;7.51;74.89
71175;DHT22;58876;51.994;4.472;2023-02-01T06:06:22;7.63;74.69
71175;DHT22;58876;51.994;4.472;2023-02-01T06:08:48;7.58;74.91
71175;DHT22;58876;51.994;4.472;2023-02-01T06:11:13;7.48;75.45
71175;DHT22;58876;51.994;4.472;2023-02-01T06:13:39;7.46;75.40
71175;DHT22;58876;51.994;4.472;2023-02-01T06:16:05;7.53;75.64
71175;DHT22;58876;51.994;4.472;2023-02-01T06:18:34;7.66;75.14
71175;DHT22;58876;51.994;4.472;2023-02-01T06:21:00;7.52;75.64
71175;DHT22;58876;51.994;4.472;2023-02-01T06:23:27;7.53;75.36
71175;DHT22;58876;51.994;4.472;2023-02-01T06:26:01;7.66;75.11
71175;DHT22;58876;51.994;4.472;2023-02-01T06:28:29;7.72;74.24
71175;DHT22;58876;51.994;4.472;2023-02-01T06:30:55;7.69;74.14
71175;DHT22;58876;51.994;4.472;2023-02-01T06:33:20;7.65;73.99
71175;DHT22;58876;51.994;4.472;2023-02-01T06:35:46;7.63;73.96
71175;DHT22;58876;51.994;4.472;2023-02-01T06:38:12;7.73;73.81
71175;DHT22;58876;51.994;4.472;2023-02-01T06:40:39;7.74;73.62
71175;DHT22;58876;51.994;4.472;2023-02-01T06:43:04;7.74;73.47
71175;DHT22;58876;51.994;4.472;2023-02-01T06:45:30;7.66;73.95
71175;DHT22;58876;51.994;4.472;2023-02-01T06:47:56;7.63;74.31
71175;DHT22;58876;51.994;4.472;2023-02-01T06:50:21;7.70;73.98
71175;DHT22;58876;51.994;4.472;2023-02-01T06:52:47;7.67;74.22
71175;DHT22;58876;51.994;4.472;2023-02-01T06:55:12;7.67;74.35
71175;DHT22;58876;51.994;4.472;2023-02-01T06:57:38;7.61;75.04
71175;DHT22;58876;51.994;4.472;2023-02-01T07:00:04;7.70;74.84
71175;DHT22;58876;51.994;4.472;2023-02-01T07:02:30;7.66;74.82
71175;DHT22;58876;51.994;4.472;2023-02-01T07:04:55;7.58;75.32
71175;DHT22;58876;51.994;4.472;2023-02-01T07:07:21;7.65;75.15
71175;DHT22;58876;51.994;4.472;2023-02-01T07:09:48;7.73;74.64
71175;DHT22;58876;51.994;4.472;2023-02-01T07:12:15;7.69;74.91
71175;DHT22;58876;51.994;4.472;2023-02-01T07:14:40;7.73;74.92
71175;DHT22;58876;51.994;4.472;2023-02-01T07:17:06;7.72;74.87
71175;DHT22;58876;51.994;4.472;2023-02-01T07:19:31;7.79;74.44
71175;DHT22;58876;51.994;4.472;2023-02-01T07:21:57;7.80;74.42
71175;DHT22;58876;51.994;4.472;2023-02-01T07:24:22;7.80;74.35
71175;DHT22;58876;51.994;4.472;2023-02-01T07:26:47;7.66;74.69
71175;DHT22;58876;51.994;4.472;2023-02-01T07:29:14;7.70;74.63
71175;DHT22;58876;51.994;4.472;2023-02-01T07:31:39;7.76;74.70
71175;DHT22;58876;51.994;4.472;2023-02-01T07:34:04;7.73;74.78
71175;DHT22;58876;51.994;4.472;2023-02-01T07:36:30;7.74;74.99
71175;DHT22;58876;51.994;4.472;2023-02-01T07:38:57;7.67;75.07
71175;DHT22;58876;51.994;4.472;2023-02-01T07:41:22;7.74;74.82
71175;DHT22;58876;51.994;4.472;2023-02-01T07:43:48;7.66;75.16
71175;DHT22;58876;51.994;4.472;2023-02-01T07:46:15;7.66;75.06
71175;DHT22;58876;51.994;4.472;2023-02-01T07:48:41;7.69;74.84
71175;DHT22;58876;51.994;4.472;2023-02-01T07:51:13;7.76;74.43
71175;DHT22;58876;51.994;4.472;2023-02-01T07:53:40;7.72;74.84
71175;DHT22;58876;51.994;4.472;2023-02-01T07:56:12;7.72;74.97
71175;DHT22;58876;51.994;4.472;2023-02-01T07:58:38;7.69;75.25
71175;DHT22;58876;51.994;4.472;2023-02-01T08:01:03;7.63;75.54
71175;DHT22;58876;51.994;4.472;2023-02-01T08:03:58;7.73;75.02
71175;DHT22;58876;51.994;4.472;2023-02-01T08:06:29;7.67;75.43
71175;DHT22;58876;51.994;4.472;2023-02-01T08:08:56;7.65;75.75
71175;DHT22;58876;51.994;4.472;2023-02-01T08:11:23;7.72;75.04
71175;DHT22;58876;51.994;4.472;2023-02-01T08:13:49;7.74;75.11
71175;DHT22;58876;51.994;4.472;2023-02-01T08:16:17;7.73;75.10
71175;DHT22;58876;51.994;4.472;2023-02-01T08:18:44;7.70;74.96
71175;DHT22;58876;51.994;4.472;2023-02-01T08:23:38;7.80;74.26
71175;DHT22;58876;51.994;4.472;2023-02-01T08:26:14;7.93;74.30
71175;DHT22;58876;51.994;4.472;2023-02-01T08:28:43;7.87;74.11
71175;DHT22;58876;51.994;4.472;2023-02-01T08:31:12;7.93;73.58
71175;DHT22;58876;51.994;4.472;2023-02-01T08:33:41;7.93;73.78
71175;DHT22;58876;51.994;4.472;2023-02-01T08:36:08;7.90;73.81
71175;DHT22;58876;51.994;4.472;2023-02-01T08:38:40;7.79;74.27
71175;DHT22;58876;51.994;4.472;2023-02-01T08:41:14;7.87;74.59
71175;DHT22;58876;51.994;4.472;2023-02-01T08:43:41;7.94;74.52
71175;DHT22;58876;51.994;4.472;2023-02-01T08:46:08;7.90;74.61
71175;DHT22;58876;51.994;4.472;2023-02-01T08:48:35;8.03;74.25
71175;DHT22;58876;51.994;4.472;2023-02-01T08:51:05;8.07;73.98
71175;DHT22;58876;51.994;4.472;2023-02-01T08:53:32;8.04;74.19
71175;DHT22;58876;51.994;4.472;2023-02-01T08:55:57;8.07;74.61
71175;DHT22;58876;51.994;4.472;2023-02-01T08:58:23;8.00;74.48
71175;DHT22;58876;51.994;4.472;2023-02-01T09:00:49;8.07;74.24
71175;DHT22;58876;51.994;4.472;2023-02-01T09:03:15;8.13;74.15
71175;DHT22;58876;51.994;4.472;2023-02-01T09:05:41;8.30;74.15
71175;DHT22;58876;51.994;4.472;2023-02-01T09:08:07;8.20;73.63
71175;DHT22;58876;51.994;4.472;2023-02-01T09:10:34;8.30;73.43
71175;DHT22;58876;51.994;4.472;2023-02-01T09:13:02;8.21;73.55
71175;DHT22;58876;51.994;4.472;2023-02-01T09:15:28;8.42;73.18
71175;DHT22;58876;51.994;4.472;2023-02-01T09:17:53;8.35;73.13
71175;DHT22;58876;51.994;4.472;2023-02-01T09:20:19;8.45;72.92
71175;DHT22;58876;51.994;4.472;2023-02-01T09:22:50;8.44;72.63
71175;DHT22;58876;51.994;4.472;2023-02-01T09:25:15;8.37;73.04
71175;DHT22;58876;51.994;4.472;2023-02-01T09:27:41;8.38;72.47
71175;DHT22;58876;51.994;4.472;2023-02-01T09:30:07;8.42;72.19
71175;DHT22;58876;51.994;4.472;2023-02-01T09:32:32;8.31;73.16
71175;DHT22;58876;51.994;4.472;2023-02-01T09:34:58;8.37;72.95
71175;DHT22;58876;51.994;4.472;2023-02-01T09:37:23;8.41;72.47
71175;DHT22;58876;51.994;4.472;2023-02-01T09:39:49;8.52;72.28
71175;DHT22;58876;51.994;4.472;2023-02-01T09:47:56;8.40;72.14
71175;DHT22;58876;51.994;4.472;2023-02-01T09:50:36;8.44;72.15
71175;DHT22;58876;51.994;4.472;2023-02-01T09:53:16;8.35;72.16
71175;DHT22;58876;51.994;4.472;2023-02-01T09:55:46;8.40;72.03
71175;DHT22;58876;51.994;4.472;2023-02-01T09:58:32;8.40;71.93
71175;DHT22;58876;51.994;4.472;2023-02-01T10:01:03;8.31;72.45
71175;DHT22;58876;51.994;4.472;2023-02-01T10:03:34;8.34;72.30
71175;DHT22;58876;51.994;4.472;2023-02-01T10:14:37;8.28;72.53
71175;DHT22;58876;51.994;4.472;2023-02-01T10:23:08;8.31;72.17
71175;DHT22;58876;51.994;4.472;2023-02-01T10:25:54;8.31;72.74
71175;DHT22;58876;51.994;4.472;2023-02-01T10:28:21;8.31;73.15
71175;DHT22;58876;51.994;4.472;2023-02-01T10:30:54;8.27;72.95
71175;DHT22;58876;51.994;4.472;2023-02-01T10:33:34;8.30;73.01
71175;DHT22;58876;51.994;4.472;2023-02-01T10:36:16;8.40;72.89
71175;DHT22;58876;51.994;4.472;2023-02-01T10:38:46;8.45;72.55
71175;DHT22;58876;51.994;4.472;2023-02-01T10:41:12;8.56;72.60
71175;DHT22;58876;51.994;4.472;2023-02-01T10:43:39;8.61;72.17
71175;DHT22;58876;51.994;4.472;2023-02-01T10:46:06;8.61;71.92
71175;DHT22;58876;51.994;4.472;2023-02-01T10:48:32;8.76;71.73
71175;DHT22;58876;51.994;4.472;2023-02-01T10:53:31;8.76;71.38
71175;DHT22;58876;51.994;4.472;2023-02-01T10:56:06;8.82;71.43
71175;DHT22;58876;51.994;4.472;2023-02-01T10:58:32;8.85;70.80
71175;DHT22;58876;51.994;4.472;2023-02-01T11:01:06;8.71;71.06
71175;DHT22;58876;51.994;4.472;2023-02-01T11:03:56;8.75;71.11
71175;DHT22;58876;51.994;4.472;2023-02-01T11:11:57;8.85;71.21
71175;DHT22;58876;51.994;4.472;2023-02-01T11:14:40;9.06;71.28
71175;DHT22;58876;51.994;4.472;2023-02-01T11:19:46;8.76;71.49
71175;DHT22;58876;51.994;4.472;2023-02-01T11:22:13;9.03;71.43
71175;DHT22;58876;51.994;4.472;2023-02-01T11:24:44;8.80;71.92
71175;DHT22;58876;51.994;4.472;2023-02-01T11:27:17;8.80;72.34
71175;DHT22;58876;51.994;4.472;2023-02-01T11:29:52;9.03;70.86
71175;DHT22;58876;51.994;4.472;2023-02-01T11:32:22;8.92;71.64
71175;DHT22;58876;51.994;4.472;2023-02-01T11:34:59;8.94;70.90
71175;DHT22;58876;51.994;4.472;2023-02-01T11:37:37;9.06;70.78
71175;DHT22;58876;51.994;4.472;2023-02-01T11:43:13;9.28;69.95
71175;DHT22;58876;51.994;4.472;2023-02-01T11:45:40;9.16;70.24
71175;DHT22;58876;51.994;4.472;2023-02-01T11:48:14;9.28;70.00
71175;DHT22;58876;51.994;4.472;2023-02-01T11:50:44;9.10;70.14
71175;DHT22;58876;51.994;4.472;2023-02-01T11:53:23;8.97;70.89
71175;DHT22;58876;51.994;4.472;2023-02-01T11:56:20;8.86;71.11
71175;DHT22;58876;51.994;4.472;2023-02-01T12:07:17;8.86;71.12
71175;DHT22;58876;51.994;4.472;2023-02-01T12:09:51;8.80;71.72
71175;DHT22;58876;51.994;4.472;2023-02-01T12:12:26;8.89;71.82
71175;DHT22;58876;51.994;4.472;2023-02-01T12:24:37;8.76;72.03
71175;DHT22;58876;51.994;4.472;2023-02-01T12:33:21;9.23;71.06
71175;DHT22;58876;51.994;4.472;2023-02-01T12:38:11;9.40;70.57
71175;DHT22;58876;51.994;4.472;2023-02-01T12:43:23;9.24;71.21
71175;DHT22;58876;51.994;4.472;2023-02-01T12:46:33;9.33;70.45
71175;DHT22;58876;51.994;4.472;2023-02-01T12:51:28;9.20;71.23
71175;DHT22;58876;51.994;4.472;2023-02-01T12:54:02;9.17;71.09
71175;DHT22;58876;51.994;4.472;2023-02-01T12:57:06;9.26;70.99
71175;DHT22;58876;51.994;4.472;2023-02-01T12:59:44;9.37;70.22
71175;DHT22;58876;51.994;4.472;2023-02-01T13:02:25;9.16;70.24
71175;DHT22;58876;51.994;4.472;2023-02-01T13:07:43;9.07;71.16
71175;DHT22;58876;51.994;4.472;2023-02-01T13:10:21;9.10;71.24
71175;DHT22;58876;51.994;4.472;2023-02-01T13:18:21;9.41;70.72
71175;DHT22;58876;51.994;4.472;2023-02-01T13:21:08;9.37;71.12
71175;DHT22;58876;51.994;4.472;2023-02-01T13:23:39;9.24;71.23
71175;DHT22;58876;51.994;4.472;2023-02-01T13:26:05;9.07;72.03
71175;DHT22;58876;51.994;4.472;2023-02-01T13:29:08;9.12;72.17
71175;DHT22;58876;51.994;4.472;2023-02-01T13:34:37;9.07;72.35
71175;DHT22;58876;51.994;4.472;2023-02-01T13:40:39;8.92;72.91
71175;DHT22;58876;51.994;4.472;2023-02-01T13:43:13;9.03;73.01
71175;DHT22;58876;51.994;4.472;2023-02-01T13:45:49;9.04;73.03
71175;DHT22;58876;51.994;4.472;2023-02-01T13:48:28;9.02;72.72
71175;DHT22;58876;51.994;4.472;2023-02-01T13:50:59;9.00;72.81
71175;DHT22;58876;51.994;4.472;2023-02-01T13:53:30;9.19;72.56
71175;DHT22;58876;51.994;4.472;2023-02-01T13:56:00;9.12;72.76
71175;DHT22;58876;51.994;4.472;2023-02-01T13:58:35;9.26;72.20
71175;DHT22;58876;51.994;4.472;2023-02-01T14:03:54;9.13;72.76
71175;DHT22;58876;51.994;4.472;2023-02-01T14:11:50;8.94;73.38
71175;DHT22;58876;51.994;4.472;2023-02-01T14:16:42;9.09;73.56
71175;DHT22;58876;51.994;4.472;2023-02-01T14:19:22;9.00;73.79
71175;DHT22;58876;51.994;4.472;2023-02-01T14:21:54;9.07;73.82
71175;DHT22;58876;51.994;4.472;2023-02-01T14:24:29;9.04;73.77
71175;DHT22;58876;51.994;4.472;2023-02-01T14:26:59;9.03;74.00
71175;DHT22;58876;51.994;4.472;2023-02-01T14:29:37;9.17;73.64
71175;DHT22;58876;51.994;4.472;2023-02-01T14:44:44;9.17;74.29
71175;DHT22;58876;51.994;4.472;2023-02-01T14:47:27;9.12;74.39
71175;DHT22;58876;51.994;4.472;2023-02-01T14:50:17;9.23;74.44
71175;DHT22;58876;51.994;4.472;2023-02-01T15:00:56;9.20;74.84
71175;DHT22;58876;51.994;4.472;2023-02-01T15:05:59;9.20;74.78
71175;DHT22;58876;51.994;4.472;2023-02-01T15:08:34;9.23;74.98
71175;DHT22;58876;51.994;4.472;2023-02-01T15:11:05;9.28;74.59
71175;DHT22;58876;51.994;4.472;2023-02-01T15:13:32;9.31;74.61
71175;DHT22;58876;51.994;4.472;2023-02-01T15:18:35;9.37;74.21
71175;DHT22;58876;51.994;4.472;2023-02-01T15:21:02;9.34;74.25
71175;DHT22;58876;51.994;4.472;2023-02-01T15:23:28;9.35;74.31
71175;DHT22;58876;51.994;4.472;2023-02-01T15:25:55;9.40;73.69
71175;DHT22;58876;51.994;4.472;2023-02-01T15:28:21;9.35;73.83
71175;DHT22;58876;51.994;4.472;2023-02-01T15:30:59;9.38;73.71
71175;DHT22;58876;51.994;4.472;2023-02-01T15:33:26;9.40;73.64
71175;DHT22;58876;51.994;4.472;2023-02-01T15:35:55;9.35;73.83
71175;DHT22;58876;51.994;4.472;2023-02-01T15:41:14;9.47;72.93
71175;DHT22;58876;51.994;4.472;2023-02-01T15:46:19;9.67;72.41
71175;DHT22;58876;51.994;4.472;2023-02-01T15:48:51;9.58;72.28
71175;DHT22;58876;51.994;4.472;2023-02-01T15:51:20;9.67;72.28
71175;DHT22;58876;51.994;4.472;2023-02-01T15:53:57;9.67;71.93
71175;DHT22;58876;51.994;4.472;2023-02-01T15:56:28;9.62;72.11
71175;DHT22;58876;51.994;4.472;2023-02-01T15:58:58;9.65;71.90
71175;DHT22;58876;51.994;4.472;2023-02-01T16:01:24;9.59;71.56
71175;DHT22;58876;51.994;4.472;2023-02-01T16:04:03;9.61;72.03
71175;DHT22;58876;51.994;4.472;2023-02-01T16:06:31;9.55;72.15
71175;DHT22;58876;51.994;4.472;2023-02-01T16:09:00;9.71;71.82
71175;DHT22;58876;51.994;4.472;2023-02-01T16:11:29;9.65;72.14
71175;DHT22;58876;51.994;4.472;2023-02-01T16:13:59;9.55;72.28
71175;DHT22;58876;51.994;4.472;2023-02-01T16:16:27;9.59;72.20
71175;DHT22;58876;51.994;4.472;2023-02-01T16:18:53;9.65;72.12
71175;DHT22;58876;51.994;4.472;2023-02-01T16:21:19;9.65;72.27
71175;DHT22;58876;51.994;4.472;2023-02-01T16:23:49;9.58;72.40
71175;DHT22;58876;51.994;4.472;2023-02-01T16:26:15;9.75;72.25
71175;DHT22;58876;51.994;4.472;2023-02-01T16:28:41;9.65;72.46
71175;DHT22;58876;51.994;4.472;2023-02-01T16:31:12;9.65;72.60
71175;DHT22;58876;51.994;4.472;2023-02-01T16:33:50;9.64;72.66
71175;DHT22;58876;51.994;4.472;2023-02-01T16:36:17;9.65;72.75
71175;DHT22;58876;51.994;4.472;2023-02-01T16:38:44;9.52;73.25
71175;DHT22;58876;51.994;4.472;2023-02-01T16:41:13;9.48;73.71
71175;DHT22;58876;51.994;4.472;2023-02-01T16:43:39;9.58;73.60
71175;DHT22;58876;51.994;4.472;2023-02-01T16:46:04;9.59;73.65
71175;DHT22;58876;51.994;4.472;2023-02-01T16:48:35;9.65;73.62
71175;DHT22;58876;51.994;4.472;2023-02-01T16:51:08;9.67;73.74
71175;DHT22;58876;51.994;4.472;2023-02-01T16:53:35;9.55;74.23
71175;DHT22;58876;51.994;4.472;2023-02-01T16:56:00;9.51;74.44
71175;DHT22;58876;51.994;4.472;2023-02-01T16:58:28;9.43;74.82
71175;DHT22;58876;51.994;4.472;2023-02-01T17:00:54;9.35;75.15
71175;DHT22;58876;51.994;4.472;2023-02-01T17:03:20;9.43;75.19
71175;DHT22;58876;51.994;4.472;2023-02-01T17:05:52;9.33;75.64
71175;DHT22;58876;51.994;4.472;2023-02-01T17:08:45;9.33;75.54
71175;DHT22;58876;51.994;4.472;2023-02-01T17:11:12;9.34;75.53
71175;DHT22;58876;51.994;4.472;2023-02-01T17:13:39;9.34;75.40
71175;DHT22;58876;51.994;4.472;2023-02-01T17:16:27;9.28;75.70
71175;DHT22;58876;51.994;4.472;2023-02-01T17:19:02;9.33;75.52
71175;DHT22;58876;51.994;4.472;2023-02-01T17:21:30;9.30;75.54
71175;DHT22;58876;51.994;4.472;2023-02-01T17:23:59;9.31;75.52
71175;DHT22;58876;51.994;4.472;2023-02-01T17:26:26;9.44;75.12
71175;DHT22;58876;51.994;4.472;2023-02-01T17:28:51;9.45;74.97
71175;DHT22;58876;51.994;4.472;2023-02-01T17:31:17;9.40;75.30
71175;DHT22;58876;51.994;4.472;2023-02-01T17:33:44;9.38;75.32
71175;DHT22;58876;51.994;4.472;2023-02-01T17:36:14;9.47;75.20
71175;DHT22;58876;51.994;4.472;2023-02-01T17:38:40;9.52;74.97
71175;DHT22;58876;51.994;4.472;2023-02-01T17:41:09;9.48;75.19
71175;DHT22;58876;51.994;4.472;2023-02-01T17:43:35;9.55;75.00
71175;DHT22;58876;51.994;4.472;2023-02-01T17:46:19;9.43;75.32
71175;DHT22;58876;51.994;4.472;2023-02-01T17:48:45;9.51;74.94
71175;DHT22;58876;51.994;4.472;2023-02-01T17:51:17;9.48;75.10
71175;DHT22;58876;51.994;4.472;2023-02-01T17:53:43;9.45;75.17
71175;DHT22;58876;51.994;4.472;2023-02-01T17:56:18;9.52;75.08
71175;DHT22;58876;51.994;4.472;2023-02-01T17:58:45;9.59;74.97
71175;DHT22;58876;51.994;4.472;2023-02-01T18:01:19;9.57;74.87
71175;DHT22;58876;51.994;4.472;2023-02-01T18:03:46;9.55;74.90
71175;DHT22;58876;51.994;4.472;2023-02-01T18:06:13;9.54;75.17
71175;DHT22;58876;51.994;4.472;2023-02-01T18:08:39;9.55;75.16
71175;DHT22;58876;51.994;4.472;2023-02-01T18:11:11;9.48;75.43
71175;DHT22;58876;51.994;4.472;2023-02-01T18:13:37;9.58;75.12
71175;DHT22;58876;51.994;4.472;2023-02-01T18:16:03;9.45;75.44
71175;DHT22;58876;51.994;4.472;2023-02-01T18:18:29;9.52;75.17
71175;DHT22;58876;51.994;4.472;2023-02-01T18:20:57;9.55;75.02
71175;DHT22;58876;51.994;4.472;2023-02-01T18:23:23;9.51;75.07
71175;DHT22;58876;51.994;4.472;2023-02-01T18:25:55;9.54;75.21
71175;DHT22;58876;51.994;4.472;2023-02-01T18:28:20;9.57;75.10
71175;DHT22;58876;51.994;4.472;2023-02-01T18:30:49;9.51;75.31
71175;DHT22;58876;51.994;4.472;2023-02-01T18:33:22;9.68;74.92
71175;DHT22;58876;51.994;4.472;2023-02-01T18:35:48;9.55;75.55
71175;DHT22;58876;51.994;4.472;2023-02-01T18:38:13;9.61;75.23
71175;DHT22;58876;51.994;4.472;2023-02-01T18:40:47;9.54;75.63